首页
METAR-TAF:

METAR-TAF

机场 :

阿克拉维克, 西北特區, 加拿大

纬度: 68-13N, 经度: 135-00W, 海拔: 7米

当前天气观测

该预报发布于17分钟前的20:00 UTC
风速2节,风向多变
温度 19°C
湿度 73%
气压 1002 hPa
能見度: 24.1公里
少量云层高于2500英尺
少量云层高于10000英尺
散云层高于23000英尺

METAR: CYKD 032000Z VRB02KT 15SM FEW025 FEW100 SCT230 19/14 A2959 RMK CU1AC1CI2 CU TR AC TR TCU DVLPG W SLP021 DENSITY ALT 900FT

时间: 14:17 (20:17 UTC)


TAF: 丢失

超过4000个机场的气象观测和天气预报(METAR&TAF报告)。

可查询的气象台以黄色和红色小点在地图上表示。

将鼠标移到小点上方,可查看气象台名称。

然后点击查看天气观测和预报。

如需切换地图:点击带黑十字的绿色按钮放大地图;点击带横线的绿色按钮缩小地图;或者点击绿色箭头查看邻近地区的地图。


METAR-TAF: